Terminal Aerodrome Forecast
Issued by NWS

Home | Current Version | Previous Version | Text Only | Print | Product List | Glossary On
Versions: 1 2 3 4 5 6 7 8 9 10 11 12 13 14
000
FTUS41 KBTV 012031 AAA
TAFMPV
TAF AMD
KMPV 012031Z 0121/0218 19006KT 6SM -RA BR BKN025 OVC045
     FM012200 16006KT 3SM -SHRA BR OVC025
     FM020700 15004KT P6SM VCSH SCT020 OVC035
     FM021000 16004KT 3SM -SHRA BR SCT015 OVC030=

USA.gov is the U.S. government's official web portal to all federal, state and local government web resources and services.